Time;durP1;ratioP1;P1;durP2;ratioP2;P2;SDS_P1;SDS_P2;PMS_P1;PMS_P2;Temp;Humidity;BMP_temperature;BMP_pressure;BME280_temperature;BME280_humidity;BME280_pressure;Samples;Min_cycle;Max_cycle;Signal;HPM_P1;HPM_P2
2023/05/14 00:00:18;;;;;;;12.57;7.97;;;;;;;10.00;100.00;100633.50;5029617;28;20733;-67
2023/05/14 00:02:44;;;;;;;8.97;7.60;;;;;;;9.91;100.00;100638.63;5031070;28;20308;-67
2023/05/14 00:05:10;;;;;;;8.73;7.20;;;;;;;9.81;100.00;100635.75;5034592;28;20216;-66
2023/05/14 00:07:37;;;;;;;8.87;7.37;;;;;;;9.68;100.00;100626.69;5027554;28;20229;-66
2023/05/14 00:10:04;;;;;;;8.73;7.47;;;;;;;9.56;100.00;100629.06;5019788;28;20196;-67
2023/05/14 00:12:31;;;;;;;9.40;7.57;;;;;;;9.43;100.00;100628.81;5025467;28;20217;-66
2023/05/14 00:14:57;;;;;;;8.73;7.33;;;;;;;9.38;100.00;100627.81;5028760;28;20231;-67
2023/05/14 00:17:23;;;;;;;10.17;8.03;;;;;;;9.33;100.00;100626.81;5032661;28;20201;-66
2023/05/14 00:19:50;;;;;;;10.50;7.40;;;;;;;9.31;100.00;100635.59;5009188;28;20194;-66
2023/05/14 00:22:16;;;;;;;8.90;7.20;;;;;;;9.28;100.00;100630.22;5029160;28;20699;-66
2023/05/14 00:24:43;;;;;;;8.87;7.40;;;;;;;9.26;100.00;100634.59;5028097;28;20226;-66
2023/05/14 00:27:09;;;;;;;9.50;7.77;;;;;;;9.28;100.00;100619.66;5022283;28;20220;-66
2023/05/14 00:29:36;;;;;;;9.40;7.73;;;;;;;9.31;100.00;100622.38;5023837;28;20622;-66
2023/05/14 00:32:02;;;;;;;10.43;7.40;;;;;;;9.31;100.00;100620.63;5020851;28;20661;-66
2023/05/14 00:34:29;;;;;;;10.60;7.57;;;;;;;9.32;100.00;100621.50;5004547;28;20304;-67
2023/05/14 00:36:55;;;;;;;8.67;7.47;;;;;;;9.33;100.00;100620.66;5012791;28;20305;-67
2023/05/14 00:39:21;;;;;;;9.53;6.93;;;;;;;9.31;100.00;100617.97;5027609;28;20224;-66
2023/05/14 00:41:48;;;;;;;10.87;7.93;;;;;;;9.26;100.00;100613.44;5023237;28;20222;-67
2023/05/14 00:44:14;;;;;;;11.03;8.10;;;;;;;9.25;100.00;100627.53;5029069;28;20714;-67
2023/05/14 00:46:42;;;;;;;10.60;8.00;;;;;;;9.25;100.00;100616.94;5021873;28;20243;-66
2023/05/14 00:49:09;;;;;;;10.67;8.23;;;;;;;9.34;100.00;100614.50;5035127;28;20251;-66
2023/05/14 00:51:36;;;;;;;11.83;8.90;;;;;;;9.24;100.00;100605.50;5038166;28;20254;-66
2023/05/14 00:54:02;;;;;;;11.47;9.03;;;;;;;9.21;100.00;100607.19;5020749;28;20219;-66
2023/05/14 00:56:29;;;;;;;11.60;8.83;;;;;;;9.30;100.00;100610.00;5025594;28;20200;-66
2023/05/14 00:58:55;;;;;;;9.47;8.03;;;;;;;9.40;100.00;100609.34;5035493;28;20202;-67
2023/05/14 01:01:21;;;;;;;10.20;8.67;;;;;;;9.30;100.00;100602.09;5032026;28;20265;-66
2023/05/14 01:03:48;;;;;;;13.23;9.17;;;;;;;9.11;100.00;100606.06;5024800;28;20589;-66
2023/05/14 01:06:30;;;;;;;11.10;8.17;;;;;;;9.02;100.00;100609.38;5040006;28;20206;-67
2023/05/14 01:09:24;;;;;;;15.30;9.43;;;;;;;9.04;100.00;100612.06;5019653;28;20498;-66
2023/05/14 01:12:12;;;;;;;12.00;8.50;;;;;;;8.92;100.00;100611.78;5029880;28;20202;-67
2023/05/14 01:15:04;;;;;;;13.07;8.67;;;;;;;8.79;100.00;100616.75;5024157;28;20221;-66
2023/05/14 01:17:34;;;;;;;11.07;8.87;;;;;;;8.77;100.00;100615.81;5033320;28;20244;-66
2023/05/14 01:20:01;;;;;;;11.43;9.37;;;;;;;8.72;100.00;100617.47;5016869;28;20203;-66
2023/05/14 01:22:27;;;;;;;14.73;9.17;;;;;;;8.59;100.00;100607.47;5017468;28;20224;-66
2023/05/14 01:24:53;;;;;;;13.07;9.73;;;;;;;8.47;100.00;100589.59;5024551;28;20247;-66
2023/05/14 01:27:35;;;;;;;12.20;9.97;;;;;;;8.49;100.00;100600.19;5021319;28;20203;-66
2023/05/14 01:30:26;;;;;;;13.13;9.33;;;;;;;8.43;100.00;100595.66;5023635;28;20192;-66
2023/05/14 01:32:56;;;;;;;12.40;9.20;;;;;;;8.38;100.00;100594.59;5017067;28;20228;-66
2023/05/14 01:35:26;;;;;;;13.70;9.17;;;;;;;8.36;100.00;100601.59;5013795;28;20196;-67
2023/05/14 01:38:05;;;;;;;14.70;10.53;;;;;;;8.31;100.00;100600.56;5022959;28;20195;-66
2023/05/14 01:40:32;;;;;;;15.13;10.83;;;;;;;8.28;100.00;100599.59;5022184;28;20197;-66
2023/05/14 01:42:59;;;;;;;13.97;9.80;;;;;;;8.18;100.00;100593.19;5028264;28;20211;-66
2023/05/14 01:45:26;;;;;;;12.63;9.40;;;;;;;8.10;100.00;100592.09;5020932;28;20231;-66
2023/05/14 01:47:54;;;;;;;12.97;9.80;;;;;;;8.02;100.00;100598.91;5005710;28;20201;-66
2023/05/14 01:50:21;;;;;;;11.43;8.57;;;;;;;7.93;100.00;100594.25;5018546;28;20201;-66
2023/05/14 01:52:48;;;;;;;13.37;9.20;;;;;;;7.88;100.00;100597.63;5021810;28;20581;-66
2023/05/14 01:55:14;;;;;;;12.93;8.93;;;;;;;7.84;100.00;100610.72;5023968;28;20226;-66
2023/05/14 01:57:41;;;;;;;11.50;9.13;;;;;;;7.84;100.00;100597.53;5007329;28;20204;-66
2023/05/14 02:00:08;;;;;;;11.93;9.20;;;;;;;7.79;100.00;100595.63;5021591;28;20209;-66
2023/05/14 02:02:34;;;;;;;13.20;9.37;;;;;;;7.73;100.00;100596.38;5006298;28;20708;-66
2023/05/14 02:05:01;;;;;;;13.13;9.80;;;;;;;7.72;100.00;100591.06;5020059;28;20223;-66
2023/05/14 02:07:27;;;;;;;12.90;10.03;;;;;;;7.72;100.00;100591.06;5012516;28;20259;-66
2023/05/14 02:09:53;;;;;;;11.20;9.17;;;;;;;7.83;100.00;100592.22;5016493;28;20200;-66
2023/05/14 02:12:20;;;;;;;15.07;10.33;;;;;;;7.79;100.00;100591.25;5006020;28;20196;-66
2023/05/14 02:14:46;;;;;;;12.93;10.30;;;;;;;7.75;100.00;100597.31;5017114;28;20226;-66
2023/05/14 02:17:15;;;;;;;12.97;10.07;;;;;;;7.79;100.00;100593.91;5008102;28;20659;-66
2023/05/14 02:19:41;;;;;;;12.40;9.60;;;;;;;7.77;100.00;100592.97;5022731;28;20232;-66
2023/05/14 02:22:08;;;;;;;17.40;9.87;;;;;;;7.74;100.00;100597.25;5016991;28;20216;-66
2023/05/14 02:24:34;;;;;;;15.40;9.47;;;;;;;7.74;100.00;100592.88;5017556;28;20720;-67
2023/05/14 02:27:01;;;;;;;13.73;9.50;;;;;;;7.75;100.00;100585.88;5024178;28;20201;-67
2023/05/14 02:29:27;;;;;;;12.07;9.80;;;;;;;7.77;100.00;100584.16;5004243;28;20382;-66
2023/05/14 02:31:54;;;;;;;13.80;9.43;;;;;;;7.79;100.00;100582.47;5014028;28;20223;-67
2023/05/14 02:34:22;;;;;;;14.10;9.60;;;;;;;7.95;100.00;100579.38;5025471;28;20222;-66
2023/05/14 02:36:48;;;;;;;15.73;9.90;;;;;;;8.05;100.00;100580.53;5017528;28;20200;-66
2023/05/14 02:39:14;;;;;;;15.53;9.63;;;;;;;8.15;100.00;100582.56;5023368;28;20265;-66
2023/05/14 02:41:41;;;;;;;12.07;9.90;;;;;;;8.16;100.00;100582.59;5012384;28;20201;-66
2023/05/14 02:44:07;;;;;;;15.20;10.10;;;;;;;8.17;100.00;100579.09;5018036;28;20231;-66
2023/05/14 02:46:33;;;;;;;15.37;9.97;;;;;;;8.11;100.00;100573.66;5020433;28;20242;-66
2023/05/14 02:49:01;;;;;;;11.50;9.57;;;;;;;7.99;100.00;100570.69;5016545;28;20218;-66
2023/05/14 02:51:28;;;;;;;15.40;10.43;;;;;;;8.00;100.00;100574.22;5018725;28;20739;-66
2023/05/14 02:53:54;;;;;;;16.83;10.27;;;;;;;7.95;100.00;100581.13;5019742;28;20251;-66
2023/05/14 02:56:21;;;;;;;11.83;9.83;;;;;;;7.90;100.00;100565.19;5016159;28;20616;-66
2023/05/14 02:58:47;;;;;;;12.87;9.63;;;;;;;7.84;100.00;100570.28;5027369;28;20196;-66
2023/05/14 03:01:14;;;;;;;12.13;9.57;;;;;;;7.83;100.00;100576.41;5022830;28;20196;-66
2023/05/14 03:03:40;;;;;;;11.43;9.20;;;;;;;7.80;100.00;100568.41;5022531;28;20222;-66
2023/05/14 03:06:07;;;;;;;13.67;9.57;;;;;;;7.79;100.00;100570.16;5020626;28;20209;-66
2023/05/14 03:08:34;;;;;;;13.20;9.33;;;;;;;7.71;100.00;100579.63;5036212;28;20238;-66
2023/05/14 03:11:00;;;;;;;12.70;9.40;;;;;;;7.64;100.00;100574.13;5034207;28;20230;-66
2023/05/14 03:13:26;;;;;;;13.70;9.73;;;;;;;7.59;100.00;100575.72;5038311;28;20215;-67
2023/05/14 03:15:55;;;;;;;13.53;10.17;;;;;;;7.59;100.00;100568.72;5035011;28;20199;-66
2023/05/14 03:18:22;;;;;;;14.93;9.87;;;;;;;7.59;100.00;100573.97;5027733;28;20449;-66
2023/05/14 03:20:48;;;;;;;13.10;10.03;;;;;;;7.73;100.00;100570.00;5030429;28;20237;-66
2023/05/14 03:23:15;;;;;;;15.73;10.00;;;;;;;7.97;100.00;100569.75;5032607;28;20214;-66
2023/05/14 03:25:41;;;;;;;14.30;10.73;;;;;;;8.10;100.00;100566.63;5032902;28;20576;-67
2023/05/14 03:28:08;;;;;;;12.43;9.37;;;;;;;8.11;100.00;100578.06;5015915;28;20205;-66
2023/05/14 03:30:35;;;;;;;12.07;9.57;;;;;;;8.12;100.00;100569.28;5022581;28;20278;-66
2023/05/14 03:33:01;;;;;;;11.83;9.47;;;;;;;8.12;100.00;100586.00;5027564;28;20260;-66
2023/05/14 03:35:28;;;;;;;12.77;9.53;;;;;;;8.11;100.00;100555.22;5013033;28;20231;-66
2023/05/14 03:37:57;;;;;;;13.40;9.70;;;;;;;8.21;100.00;100569.53;5022502;28;20227;-67
2023/05/14 03:40:24;;;;;;;12.60;10.03;;;;;;;8.31;100.00;100578.56;5025865;28;20621;-66
2023/05/14 03:42:51;;;;;;;15.23;10.50;;;;;;;8.39;100.00;100572.66;5012110;28;20220;-66
2023/05/14 03:45:17;;;;;;;15.03;10.43;;;;;;;8.37;100.00;100565.53;5018917;28;20729;-66
2023/05/14 03:47:43;;;;;;;14.50;10.03;;;;;;;8.37;100.00;100578.75;5023425;28;20229;-66
2023/05/14 03:50:10;;;;;;;14.00;9.97;;;;;;;8.28;100.00;100567.91;5022110;28;20199;-66
2023/05/14 03:52:36;;;;;;;12.37;9.83;;;;;;;8.24;100.00;100571.34;5024760;28;20210;-66
2023/05/14 03:55:03;;;;;;;13.60;10.40;;;;;;;8.16;100.00;100577.31;5015709;28;20724;-66
2023/05/14 03:57:29;;;;;;;15.83;10.60;;;;;;;8.33;100.00;100566.28;5026058;28;20228;-66
2023/05/14 03:59:55;;;;;;;14.70;10.73;;;;;;;8.42;100.00;100575.38;5022117;28;20274;-66
2023/05/14 04:02:22;;;;;;;14.53;10.40;;;;;;;8.40;100.00;100574.44;5024645;28;20215;-66
2023/05/14 04:04:48;;;;;;;15.67;11.07;;;;;;;8.29;100.00;100554.78;5026477;28;20225;-66
2023/05/14 04:07:15;;;;;;;13.00;10.37;;;;;;;8.52;100.00;100570.31;5026459;28;20211;-66
2023/05/14 04:09:41;;;;;;;15.37;11.00;;;;;;;8.59;100.00;100570.50;5021132;28;20221;-66
2023/05/14 04:12:08;;;;;;;14.87;10.80;;;;;;;8.67;100.00;100574.22;5004202;28;20205;-66
2023/05/14 04:14:34;;;;;;;14.03;10.10;;;;;;;8.69;100.00;100571.63;5021646;28;20220;-66
2023/05/14 04:17:00;;;;;;;14.23;10.57;;;;;;;8.71;100.00;100572.53;5006140;28;20203;-66
2023/05/14 04:19:27;;;;;;;15.40;10.43;;;;;;;8.65;100.00;100573.28;5014160;28;20728;-66
2023/05/14 04:21:53;;;;;;;14.43;10.00;;;;;;;8.62;100.00;100578.50;5017595;28;20200;-66
2023/05/14 04:24:19;;;;;;;13.70;10.00;;;;;;;8.63;100.00;100576.75;5003863;28;20216;-66
2023/05/14 04:26:46;;;;;;;13.27;9.90;;;;;;;8.70;100.00;100576.94;5020561;28;20227;-66
2023/05/14 04:29:12;;;;;;;15.53;9.93;;;;;;;8.84;100.00;100576.38;5024337;28;20203;-66
2023/05/14 04:31:38;;;;;;;15.03;10.47;;;;;;;9.04;100.00;100561.88;5022964;28;20270;-66
2023/05/14 04:34:05;;;;;;;15.83;10.90;;;;;;;9.26;100.00;100572.06;5027771;28;20269;-67
2023/05/14 04:36:31;;;;;;;15.77;11.03;;;;;;;9.40;100.00;100569.69;5006518;28;20227;-66
2023/05/14 04:38:57;;;;;;;16.03;12.40;;;;;;;9.42;100.00;100573.25;5017086;28;20192;-66
2023/05/14 04:41:24;;;;;;;17.27;11.97;;;;;;;9.50;100.00;100576.94;5017457;28;20225;-67
2023/05/14 04:43:54;;;;;;;13.33;10.50;;;;;;;9.54;100.00;100580.56;5016096;28;20222;-67
2023/05/14 04:46:21;;;;;;;14.87;10.97;;;;;;;9.66;100.00;100584.34;5027531;28;20255;-66
2023/05/14 04:48:47;;;;;;;14.87;10.93;;;;;;;9.83;100.00;100578.50;5024060;28;20584;-66
2023/05/14 04:51:14;;;;;;;13.80;10.50;;;;;;;10.02;100.00;100589.47;5029427;28;20193;-67
2023/05/14 04:53:40;;;;;;;14.37;11.10;;;;;;;10.21;100.00;100587.19;5041042;28;20223;-66
2023/05/14 04:56:06;;;;;;;15.23;11.37;;;;;;;10.32;100.00;100585.59;5015587;28;20617;-66
2023/05/14 04:58:33;;;;;;;15.40;11.00;;;;;;;10.52;100.00;100581.56;5031839;28;20239;-66
2023/05/14 05:01:03;;;;;;;14.73;10.23;;;;;;;10.72;100.00;100579.22;5035284;28;20199;-66
2023/05/14 05:03:30;;;;;;;14.07;9.40;;;;;;;10.93;100.00;100590.16;5030523;28;20234;-66
2023/05/14 05:05:56;;;;;;;13.70;9.47;;;;;;;10.99;100.00;100589.34;5033699;28;20253;-66
2023/05/14 05:08:23;;;;;;;10.63;8.73;;;;;;;11.08;100.00;100580.66;5016037;28;20230;-66
2023/05/14 05:10:49;;;;;;;10.27;8.50;;;;;;;11.17;100.00;100581.66;5037189;28;20200;-67
2023/05/14 05:13:15;;;;;;;11.13;8.47;;;;;;;11.28;100.00;100585.38;5021777;28;20194;-66
2023/05/14 05:15:42;;;;;;;10.83;8.63;;;;;;;11.54;100.00;100585.69;5021162;28;20257;-66
2023/05/14 05:18:09;;;;;;;11.60;8.03;;;;;;;11.74;100.00;100578.00;5023897;28;20198;-68
2023/05/14 05:20:35;;;;;;;11.60;7.90;;;;;;;11.96;100.00;100576.47;5028109;28;20278;-72
2023/05/14 05:23:01;;;;;;;10.10;7.73;;;;;;;12.33;100.00;100587.47;5021664;28;20274;-75
2023/05/14 05:25:27;;;;;;;10.63;7.80;;;;;;;12.44;100.00;100583.19;5028166;28;20579;-75
2023/05/14 05:27:54;;;;;;;9.27;7.37;;;;;;;12.69;100.00;100579.81;5024077;28;20277;-75
2023/05/14 05:30:20;;;;;;;8.33;7.10;;;;;;;12.98;100.00;100572.06;5017724;28;20203;-70
2023/05/14 05:32:47;;;;;;;9.20;6.60;;;;;;;13.07;100.00;100576.56;5021970;28;20674;-69
2023/05/14 05:35:13;;;;;;;8.17;6.80;;;;;;;13.32;100.00;100577.63;5020013;28;20219;-69
2023/05/14 05:37:40;;;;;;;8.03;6.33;;;;;;;13.46;100.00;100573.25;5020851;28;20260;-68
2023/05/14 05:40:08;;;;;;;8.40;6.77;;;;;;;13.59;100.00;100580.41;5021894;28;20200;-67
2023/05/14 05:42:34;;;;;;;8.63;6.37;;;;;;;13.56;100.00;100574.16;5020454;28;20230;-68
2023/05/14 05:45:01;;;;;;;6.70;5.90;;;;;;;13.83;100.00;100576.94;5017118;28;20717;-69
2023/05/14 05:47:27;;;;;;;9.17;6.20;;;;;;;13.96;100.00;100573.44;5012783;28;20711;-74
2023/05/14 05:49:53;;;;;;;8.40;5.77;;;;;;;14.36;99.71;100576.16;5022922;28;20297;-74
2023/05/14 05:52:20;;;;;;;7.50;4.97;;;;;;;14.65;95.36;100573.56;5023458;28;20555;-74
2023/05/14 05:54:46;;;;;;;9.07;5.60;;;;;;;15.10;92.52;100566.38;5020444;28;20222;-70
2023/05/14 05:57:12;;;;;;;6.07;5.07;;;;;;;15.66;89.81;100574.25;5022586;28;20219;-68
2023/05/14 05:59:39;;;;;;;6.77;5.17;;;;;;;16.02;89.86;100578.53;5021260;28;20222;-66
2023/05/14 06:02:05;;;;;;;5.80;5.20;;;;;;;15.85;89.75;100583.06;5022930;28;20285;-67
2023/05/14 06:04:32;;;;;;;8.67;6.07;;;;;;;15.51;90.04;100580.50;5018132;28;20223;-66
2023/05/14 06:06:58;;;;;;;7.07;5.20;;;;;;;15.11;92.99;100579.72;5020369;28;20654;-66
2023/05/14 06:09:24;;;;;;;7.90;5.43;;;;;;;14.78;93.67;100583.31;5011172;28;20199;-67
2023/05/14 06:11:51;;;;;;;6.40;5.17;;;;;;;14.60;94.94;100580.66;5023976;28;20218;-66
2023/05/14 06:14:17;;;;;;;6.00;5.30;;;;;;;14.48;95.87;100583.34;5012961;28;20222;-66
2023/05/14 06:16:43;;;;;;;7.47;5.07;;;;;;;14.36;95.98;100582.38;5026304;28;20231;-68
2023/05/14 06:19:10;;;;;;;7.20;5.47;;;;;;;14.38;95.67;100583.25;5007270;28;20503;-67
2023/05/14 06:21:37;;;;;;;6.93;5.40;;;;;;;14.55;95.13;100575.34;5027954;28;20203;-68
2023/05/14 06:24:03;;;;;;;7.63;5.50;;;;;;;14.70;95.16;100585.09;5032635;28;20238;-67
2023/05/14 06:26:30;;;;;;;6.50;5.20;;;;;;;14.87;95.28;100575.31;5029551;28;20630;-67
2023/05/14 06:28:56;;;;;;;5.77;5.10;;;;;;;15.26;94.01;100579.69;5027778;28;20190;-68
2023/05/14 06:31:22;;;;;;;6.20;4.87;;;;;;;15.64;92.71;100582.28;5025279;28;20537;-66
2023/05/14 06:33:49;;;;;;;6.00;5.20;;;;;;;15.93;90.27;100584.78;5033697;28;20207;-68
2023/05/14 06:36:15;;;;;;;6.77;4.83;;;;;;;16.37;87.71;100588.06;5029976;28;20578;-67
2023/05/14 06:38:41;;;;;;;5.70;4.70;;;;;;;16.77;83.34;100586.00;5036562;28;20635;-66
2023/05/14 06:41:08;;;;;;;5.83;4.90;;;;;;;16.92;82.25;100578.75;5017331;28;20206;-65
2023/05/14 06:43:34;;;;;;;5.47;4.87;;;;;;;16.87;82.52;100582.38;5036409;28;20750;-66
2023/05/14 06:46:00;;;;;;;5.80;3.90;;;;;;;16.96;77.69;100576.94;5023261;28;20196;-66
2023/05/14 06:48:28;;;;;;;5.17;3.93;;;;;;;17.22;79.59;100582.91;5032328;28;20668;-66
2023/05/14 06:50:55;;;;;;;4.50;3.60;;;;;;;17.23;73.56;100584.69;5032350;28;20591;-66
2023/05/14 06:53:21;;;;;;;4.50;3.67;;;;;;;17.20;71.48;100583.81;5028148;28;20681;-66
2023/05/14 06:55:47;;;;;;;4.67;3.30;;;;;;;17.56;71.53;100585.19;5033596;28;20203;-66
2023/05/14 06:58:14;;;;;;;3.20;2.90;;;;;;;17.80;68.62;100587.63;5037192;28;20203;-66
2023/05/14 07:00:40;;;;;;;3.73;3.40;;;;;;;17.94;67.31;100571.34;5033057;28;20289;-66
2023/05/14 07:03:07;;;;;;;4.90;3.07;;;;;;;19.59;61.57;100579.31;5029313;28;20221;-66
2023/05/14 07:05:33;;;;;;;4.13;3.07;;;;;;;21.45;51.99;100581.13;5028831;28;20204;-66
2023/05/14 07:08:00;;;;;;;3.87;3.20;;;;;;;22.90;44.82;100578.47;5025344;28;20585;-66
2023/05/14 07:10:26;;;;;;;3.50;3.00;;;;;;;23.27;43.44;100578.06;5015738;28;20200;-66
2023/05/14 07:12:52;;;;;;;3.53;2.83;;;;;;;22.49;44.98;100580.72;5025622;28;20199;-66
2023/05/14 07:15:20;;;;;;;3.50;3.00;;;;;;;21.02;47.68;100584.06;5029507;28;20658;-66
2023/05/14 07:17:46;;;;;;;3.53;3.10;;;;;;;20.13;50.98;100579.06;5032484;28;20731;-67
2023/05/14 07:20:12;;;;;;;3.97;3.13;;;;;;;19.76;52.62;100589.72;5037454;28;20191;-66
2023/05/14 07:22:39;;;;;;;4.33;3.33;;;;;;;19.53;53.17;100571.38;5031575;28;20196;-66
2023/05/14 07:25:06;;;;;;;3.80;2.83;;;;;;;19.49;52.80;100573.22;5032729;28;20277;-66
2023/05/14 07:27:32;;;;;;;3.57;3.27;;;;;;;19.46;53.60;100569.69;5033169;28;20242;-66
2023/05/14 07:29:58;;;;;;;3.33;3.00;;;;;;;19.05;53.70;100577.63;5037323;28;20237;-66
2023/05/14 07:32:25;;;;;;;3.90;3.20;;;;;;;19.48;53.56;100570.56;5017369;28;20227;-66
2023/05/14 07:34:51;;;;;;;7.23;3.30;;;;;;;19.93;52.54;100566.94;5025396;28;20212;-67
2023/05/14 07:37:18;;;;;;;3.80;2.80;;;;;;;20.23;50.88;100557.28;5029048;28;20648;-66
2023/05/14 07:39:44;;;;;;;3.83;3.43;;;;;;;20.31;51.52;100560.69;5025900;28;20207;-66
2023/05/14 07:42:10;;;;;;;3.63;3.00;;;;;;;20.59;49.91;100562.75;5031483;28;20222;-66
2023/05/14 07:44:50;;;;;;;4.20;3.17;;;;;;;20.75;49.02;100552.47;5029513;28;20228;-66
2023/05/14 07:47:17;;;;;;;3.77;3.13;;;;;;;20.82;48.06;100554.97;5029569;28;20246;-66
2023/05/14 07:49:43;;;;;;;3.70;3.10;;;;;;;21.02;47.48;100559.81;5032116;28;20214;-66
2023/05/14 07:52:10;;;;;;;4.50;3.15;;;;;;;21.23;47.52;100553.03;5035048;28;20207;-66
2023/05/14 07:54:37;;;;;;;3.70;3.03;;;;;;;21.86;45.68;100560.16;5032323;28;20247;-67
2023/05/14 07:57:04;;;;;;;3.87;2.70;;;;;;;22.20;45.06;100560.03;5033566;28;20570;-67
2023/05/14 07:59:30;;;;;;;3.17;2.88;;;;;;;22.03;44.09;100556.97;5031311;28;20629;-66
2023/05/14 08:01:57;;;;;;;3.90;3.00;;;;;;;21.59;45.30;100556.47;5035153;28;20278;-67
2023/05/14 08:04:23;;;;;;;3.38;2.88;;;;;;;21.10;46.34;100541.66;5034150;28;20239;-66
2023/05/14 08:06:50;;;;;;;4.43;2.97;;;;;;;21.18;46.17;100550.41;5021684;28;20287;-67
2023/05/14 08:09:16;;;;;;;5.87;3.20;;;;;;;21.47;46.53;100546.03;5035905;28;20645;-66
2023/05/14 08:11:43;;;;;;;4.07;3.30;;;;;;;22.01;45.45;100537.22;5035198;28;20226;-67
2023/05/14 08:14:09;;;;;;;5.03;2.83;;;;;;;22.19;43.94;100542.97;5037840;28;20218;-67
2023/05/14 08:16:35;;;;;;;3.65;3.00;;;;;;;22.14;43.90;100544.06;5028555;28;20274;-67
2023/05/14 08:19:02;;;;;;;4.97;2.92;;;;;;;22.40;43.73;100538.69;5035576;28;20244;-67
2023/05/14 08:21:28;;;;;;;3.33;2.92;;;;;;;22.20;45.33;100539.34;5037988;28;20208;-67
2023/05/14 08:23:55;;;;;;;5.53;3.05;;;;;;;22.40;44.53;100532.41;5042230;28;20691;-67
2023/05/14 08:26:21;;;;;;;3.45;2.90;;;;;;;22.58;44.67;100531.81;5033897;28;20571;-67
2023/05/14 08:28:48;;;;;;;4.28;2.70;;;;;;;22.65;42.70;100522.56;5036768;28;20219;-67
2023/05/14 08:31:14;;;;;;;4.03;2.92;;;;;;;23.10;41.19;100533.59;5030982;28;20219;-67
2023/05/14 08:33:40;;;;;;;4.47;2.78;;;;;;;23.29;40.32;100519.44;5027349;28;20601;-67
2023/05/14 08:36:07;;;;;;;4.13;2.90;;;;;;;23.56;39.72;100526.53;5025003;28;20739;-67
2023/05/14 08:38:33;;;;;;;3.38;2.90;;;;;;;23.88;39.60;100516.31;5027307;28;20627;-67
2023/05/14 08:41:00;;;;;;;4.90;2.97;;;;;;;23.64;38.65;100515.47;5028000;28;20512;-67
2023/05/14 08:43:36;;;;;;;6.38;2.70;;;;;;;23.57;39.54;100508.50;5019488;28;20756;-67
2023/05/14 08:46:05;;;;;;;4.40;2.80;;;;;;;22.99;41.13;100510.63;5017060;28;20235;-67
2023/05/14 08:48:33;;;;;;;3.00;2.60;;;;;;;22.66;40.15;100504.53;5025478;28;20235;-68
2023/05/14 08:51:00;;;;;;;3.15;2.85;;;;;;;22.42;40.73;100511.66;5028434;28;20210;-67
2023/05/14 08:53:27;;;;;;;3.72;3.30;;;;;;;21.59;43.86;100506.13;5024168;28;20208;-67
2023/05/14 08:55:53;;;;;;;4.63;3.25;;;;;;;20.96;45.60;100503.44;5031778;28;20218;-67
2023/05/14 08:58:20;;;;;;;4.55;3.00;;;;;;;20.44;45.66;100490.50;5027064;28;20483;-67
2023/05/14 09:00:46;;;;;;;3.92;3.10;;;;;;;20.68;46.61;100494.34;5024637;28;20203;-67
2023/05/14 09:03:13;;;;;;;3.28;2.90;;;;;;;20.99;46.50;100483.63;5025323;28;20652;-67
2023/05/14 09:05:40;;;;;;;4.25;2.90;;;;;;;21.18;45.14;100487.56;5031269;28;20200;-67
2023/05/14 09:08:06;;;;;;;3.30;3.00;;;;;;;20.76;45.07;100489.63;5025002;28;20574;-67
2023/05/14 09:10:33;;;;;;;3.20;2.90;;;;;;;21.13;44.63;100479.63;5019565;28;20200;-67
2023/05/14 09:12:59;;;;;;;3.60;3.10;;;;;;;21.87;44.01;100487.31;5027755;28;20254;-66
2023/05/14 09:15:27;;;;;;;3.80;3.22;;;;;;;21.62;43.31;100480.03;5024596;28;20200;-67
2023/05/14 09:17:55;;;;;;;3.63;2.95;;;;;;;21.18;44.61;100482.16;5028825;28;20259;-67
2023/05/14 09:20:23;;;;;;;4.10;2.90;;;;;;;20.41;46.83;100491.41;5025231;28;20198;-68
2023/05/14 09:22:53;;;;;;;3.72;3.10;;;;;;;20.06;47.04;100486.03;5025986;28;20601;-67
2023/05/14 09:25:26;;;;;;;3.75;2.90;;;;;;;20.39;48.17;100477.09;5024885;28;20499;-68
2023/05/14 09:27:53;;;;;;;3.17;2.85;;;;;;;20.63;48.52;100473.81;5027839;28;20430;-68
2023/05/14 09:30:24;;;;;;;4.20;2.80;;;;;;;20.61;47.47;100472.09;5024538;28;20689;-67
2023/05/14 09:32:53;;;;;;;4.05;3.00;;;;;;;20.67;46.35;100473.72;5025075;28;20199;-68
2023/05/14 09:35:23;;;;;;;3.28;2.92;;;;;;;20.84;45.94;100472.38;5026318;28;20218;-68
2023/05/14 09:37:52;;;;;;;3.35;2.80;;;;;;;20.98;45.62;100468.41;5023449;28;20235;-67
2023/05/14 09:40:20;;;;;;;3.30;2.80;;;;;;;21.16;45.06;100460.66;5007994;28;20210;-67
2023/05/14 09:42:48;;;;;;;4.00;2.80;;;;;;;21.50;45.25;100462.41;5033239;28;20200;-68
2023/05/14 09:45:15;;;;;;;2.90;2.70;;;;;;;21.50;44.53;100460.59;5029381;28;20227;-68
2023/05/14 09:47:42;;;;;;;5.70;2.90;;;;;;;21.12;44.74;100464.38;5025901;28;20200;-68
2023/05/14 09:50:08;;;;;;;3.53;2.85;;;;;;;21.09;45.22;100468.97;5026287;28;20234;-67
2023/05/14 09:52:36;;;;;;;2.80;2.60;;;;;;;21.06;45.23;100463.69;5027552;28;20199;-67
2023/05/14 09:55:02;;;;;;;3.28;2.95;;;;;;;21.05;45.30;100461.91;5028941;28;20248;-68
2023/05/14 09:57:29;;;;;;;2.90;2.60;;;;;;;21.36;45.01;100460.13;5031211;28;20196;-67
2023/05/14 09:59:56;;;;;;;5.43;3.00;;;;;;;21.65;43.77;100458.38;5027726;28;20203;-67
2023/05/14 10:02:28;;;;;;;3.38;2.58;;;;;;;21.63;43.68;100452.16;5029442;28;20230;-68
2023/05/14 10:04:59;;;;;;;3.42;2.53;;;;;;;21.12;44.04;100456.31;5023256;28;20227;-68
2023/05/14 10:07:30;;;;;;;3.03;2.70;;;;;;;21.01;45.52;100460.25;5011798;28;20222;-68
2023/05/14 10:10:01;;;;;;;3.97;3.17;;;;;;;20.96;46.39;100449.59;5026279;28;20257;-68
2023/05/14 10:12:33;;;;;;;3.40;2.92;;;;;;;20.92;47.08;100454.19;5030962;28;20195;-68
2023/05/14 10:15:05;;;;;;;3.65;2.88;;;;;;;20.48;45.45;100467.97;5011545;28;20219;-68
2023/05/14 10:17:33;;;;;;;4.47;3.22;;;;;;;20.59;46.39;100461.38;5029589;28;20567;-68
2023/05/14 10:20:01;;;;;;;3.17;2.88;;;;;;;21.02;45.85;100462.88;5025227;28;20559;-68
2023/05/14 10:22:32;;;;;;;3.40;2.70;;;;;;;21.90;44.36;100456.66;5018785;28;20661;-68
2023/05/14 10:24:58;;;;;;;3.25;2.80;;;;;;;22.03;42.34;100452.69;5026057;28;20581;-68
2023/05/14 10:27:25;;;;;;;3.22;2.92;;;;;;;22.04;42.25;100451.75;5013526;28;20239;-67
2023/05/14 10:29:53;;;;;;;2.78;2.45;;;;;;;22.17;41.80;100450.41;5021103;28;20409;-68
2023/05/14 10:32:23;;;;;;;3.13;2.83;;;;;;;22.86;41.01;100461.56;5016350;28;20203;-68
2023/05/14 10:34:49;;;;;;;3.80;2.63;;;;;;;22.14;41.01;100463.13;5022053;28;20220;-69
2023/05/14 10:37:17;;;;;;;3.00;2.70;;;;;;;21.84;42.06;100455.03;5024062;28;20651;-68
2023/05/14 10:39:49;;;;;;;2.67;2.33;;;;;;;22.49;41.42;100453.84;5012659;28;20258;-68
2023/05/14 10:42:22;;;;;;;2.58;2.35;;;;;;;22.76;41.40;100452.84;5021186;28;20208;-68
2023/05/14 10:45:00;;;;;;;2.90;2.60;;;;;;;21.99;41.90;100458.16;5022720;28;20563;-66
2023/05/14 10:47:27;;;;;;;3.47;3.17;;;;;;;22.19;42.53;100447.66;5029954;28;20644;-67
2023/05/14 10:49:56;;;;;;;5.07;2.78;;;;;;;22.11;43.35;100447.91;5024141;28;20196;-68
2023/05/14 10:52:24;;;;;;;3.80;3.08;;;;;;;22.73;43.11;100455.66;5024176;28;20264;-67
2023/05/14 10:54:59;;;;;;;3.20;2.90;;;;;;;23.02;41.43;100451.97;5024899;28;20292;-68
2023/05/14 10:57:30;;;;;;;5.18;3.05;;;;;;;22.52;40.68;100442.94;5022884;28;20195;-68
2023/05/14 10:59:59;;;;;;;3.58;2.58;;;;;;;22.42;41.11;100452.28;5032129;28;20204;-68
2023/05/14 11:02:29;;;;;;;3.90;2.65;;;;;;;22.24;40.13;100451.09;5015979;28;20258;-67
2023/05/14 11:05:04;;;;;;;2.53;2.33;;;;;;;22.07;40.32;100443.56;5021777;28;20215;-68
2023/05/14 11:07:39;;;;;;;2.60;2.40;;;;;;;22.16;40.33;100447.75;5030106;28;20223;-68
2023/05/14 11:10:10;;;;;;;5.18;2.65;;;;;;;21.57;41.19;100443.31;5026613;28;20194;-68
2023/05/14 11:12:39;;;;;;;2.67;2.13;;;;;;;21.12;41.04;100447.34;5019560;28;20199;-68
2023/05/14 11:15:08;;;;;;;2.50;2.30;;;;;;;21.16;41.68;100438.25;5035973;28;20210;-69
2023/05/14 11:17:36;;;;;;;5.13;2.13;;;;;;;21.40;41.09;100433.97;5025931;28;20239;-68
2023/05/14 11:20:06;;;;;;;3.08;2.33;;;;;;;21.53;41.67;100438.06;5020146;28;20274;-68